Latest Weather Observations for Warragul (Nilma North)

IDV60801

Issued at 8:12 am EST Saturday 24 August 2019 (issued every 10 minutes, with the page automatically refreshed every 10 minutes)

About weather observations | Map of weather stations | Latest weather observations for VIC | Other Formats
Station Details ID: 085313 Name: NILMA NORTH (WARRAGUL) Lat: -38.13 Lon: 145.99 Height: 134.11 m
Data from the previous 72 hours. | See also: Recent months for locations in Victoria
Date/Time
EST
Temp
°C
App
Temp
°C
Dew
Point
°C
Rel
Hum
%
Delta-T
°C
Wind Press
QNH
hPa
Press
MSL
hPa
Rain since
9am
mm
Dir  Spd
km/h
Gust
km/h
Spd
kts
Gust
kts
24/08:00am 10.8 6.5 3.1 59 3.4 NNW 15 26 8 14 1015.5 1015.7 0.2
24/07:30am 9.2 5.2 2.8 64 2.7 NNW 13 24 7 13 1015.7 1015.9 0.2
24/07:25am 9.4 5.4 2.7 63 2.9 NNW 13 24 7 13 1015.7 1015.9 0.0
24/07:00am 4.4 1.4 0.9 78 1.4 WNW 6 13 3 7 1015.8 1016.0 0.0
24/06:30am 3.0 0.5 1.4 89 0.6 N 4 4 2 2 1015.9 1016.1 0.0
24/06:00am 3.0 0.9 2.0 93 0.4 WNW 2 6 1 3 1016.2 1016.4 0.0
24/05:30am 2.0 0.3 1.7 98 0.1 CALM 0 6 0 3 1016.1 1016.3 0.0
24/05:00am 1.3 -1.3 1.0 98 0.1 NE 4 6 2 3 1016.0 1016.2 0.0
24/04:30am 1.3 -0.5 1.0 98 0.1 CALM 0 0 0 0 1016.0 1016.2 0.0
24/04:00am 1.5 -0.3 1.1 97 0.2 CALM 0 2 0 1 1015.9 1016.1 0.0
24/03:30am 1.7 -0.1 1.1 96 0.2 CALM 0 2 0 1 1016.0 1016.2 0.0
24/03:00am 1.9 0.1 1.5 97 0.2 CALM 0 2 0 1 1016.6 1016.8 0.0
24/02:30am 2.2 0.5 1.8 97 0.2 CALM 0 0 0 0 1016.8 1017.0 0.0
24/02:00am 2.1 0.4 1.7 97 0.2 CALM 0 0 0 0 1017.1 1017.3 0.0
24/01:30am 2.5 0.4 1.8 95 0.3 SE 2 7 1 4 1017.3 1017.5 0.0
24/01:00am 2.2 0.1 1.6 96 0.2 WNW 2 4 1 2 1017.4 1017.6 0.0
24/12:30am 2.7 1.0 2.1 96 0.2 CALM 0 4 0 2 1017.6 1017.8 0.0
24/12:00am 4.0 2.5 3.1 94 0.4 CALM 0 0 0 0 1017.9 1018.1 0.0
 
Date/Time
EST
Temp
°C
App
Temp
°C
Dew
Point
°C
Rel
Hum
%
Delta-T
°C
Wind Press
QNH
hPa
Press
MSL
hPa
Rain since
9am
mm
Dir  Spd
km/h
Gust
km/h
Spd
kts
Gust
kts
23/11:30pm 4.2 2.7 2.9 91 0.5 CALM 0 0 0 0 1018.1 1018.3 0.0
23/11:00pm 4.9 2.7 3.2 89 0.7 NNE 4 7 2 4 1018.4 1018.6 0.0
23/10:30pm 4.6 3.1 3.1 90 0.6 CALM 0 0 0 0 1018.9 1019.1 0.0
23/10:00pm 4.8 3.4 3.3 90 0.6 CALM 0 0 0 0 1019.2 1019.4 0.0
23/09:30pm 5.3 3.8 3.0 85 1.0 CALM 0 0 0 0 1019.4 1019.6 0.0
23/09:00pm 6.2 4.9 3.9 85 1.0 CALM 0 2 0 1 1019.6 1019.8 0.0
23/08:30pm 6.6 4.9 4.1 84 1.1 SSE 2 4 1 2 1019.6 1019.8 0.0
23/08:00pm 7.3 6.0 4.3 81 1.3 CALM 0 0 0 0 1019.6 1019.8 0.0
23/07:30pm 7.6 6.2 3.8 77 1.6 CALM 0 2 0 1 1019.7 1019.9 0.0
23/07:00pm 9.0 7.7 4.2 72 2.1 CALM 0 0 0 0 1019.8 1020.0 0.0
23/06:30pm 10.0 8.8 4.6 69 2.4 CALM 0 2 0 1 1019.7 1019.9 0.0
23/06:00pm 11.6 9.7 4.8 63 3.1 WSW 4 9 2 5 1019.6 1019.8 0.0
23/05:30pm 13.0 11.2 5.4 60 3.6 SW 4 9 2 5 1019.3 1019.5 0.0
23/05:00pm 14.6 12.8 5.4 54 4.4 SW 4 7 2 4 1018.9 1019.1 0.0
23/04:30pm 15.4 13.3 5.6 52 4.7 W 6 9 3 5 1018.9 1019.1 0.0
23/04:00pm 15.3 12.8 5.0 50 4.9 W 7 13 4 7 1018.9 1019.1 0.0
23/03:30pm 15.2 12.3 6.5 56 4.3 W 11 17 6 9 1019.1 1019.3 0.0
23/03:00pm 14.8 12.2 5.9 55 4.3 W 9 17 5 9 1019.4 1019.6 0.0
23/02:30pm 14.1 11.5 6.0 58 3.9 W 9 17 5 9 1019.8 1020.0 0.0
23/02:00pm 13.6 10.7 6.7 63 3.3 W 11 20 6 11 1020.3 1020.5 0.0
23/01:30pm 12.8 8.5 5.2 60 3.5 WNW 17 28 9 15 1020.8 1021.0 0.0
23/01:00pm 11.9 7.9 4.9 62 3.2 W 15 22 8 12 1021.6 1021.8 0.0
23/12:30pm 11.6 8.1 5.5 66 2.8 WNW 13 20 7 11 1022.2 1022.4 0.0
23/12:00pm 10.6 6.5 4.3 65 2.8 W 15 20 8 11 1022.9 1023.1 0.0
23/11:30am 10.8 7.0 5.6 70 2.4 W 15 20 8 11 1023.5 1023.7 0.0
23/11:00am 10.1 6.5 5.1 71 2.3 W 13 19 7 10 1024.0 1024.2 0.0
23/10:30am 9.8 6.2 5.2 73 2.1 W 13 22 7 12 1024.4 1024.6 0.0
23/10:00am 8.5 6.6 5.1 79 1.5 WSW 4 7 2 4 1024.8 1025.0 0.0
23/09:30am 6.8 4.8 4.3 84 1.1 SSW 4 6 2 3 1025.0 1025.2 0.0
23/09:00am 6.0 4.8 4.5 90 0.6 CALM 0 4 0 2 1025.0 1025.2 1.2
23/08:30am 5.7 4.5 4.8 94 0.4 CALM 0 0 0 0 1025.2 1025.4 1.2
23/08:00am 3.9 2.6 3.9 100 0.0 CALM 0 0 0 0 1025.2 1025.4 1.2
23/07:30am 2.5 0.5 2.5 100 0.0 SSW 2 2 1 1 1025.2 1025.4 1.2
23/07:00am 2.4 0.4 2.4 100 0.0 ESE 2 4 1 2 1024.9 1025.1 1.2
23/06:30am 2.6 1.0 2.3 98 0.1 CALM 0 0 0 0 1024.7 1024.9 1.2
23/06:00am 2.2 0.4 1.2 93 0.4 CALM 0 0 0 0 1024.7 1024.9 1.2
23/05:30am 3.2 1.6 2.2 93 0.4 CALM 0 0 0 0 1024.4 1024.6 1.2
23/05:00am 4.0 2.4 2.4 89 0.6 CALM 0 2 0 1 1024.5 1024.7 1.2
23/04:30am 4.6 3.1 2.8 88 0.7 CALM 0 4 0 2 1024.7 1024.9 1.2
23/04:00am 4.6 3.1 3.1 90 0.6 CALM 0 0 0 0 1024.8 1025.0 1.2
23/03:30am 5.5 3.7 3.5 87 0.8 N 2 4 1 2 1024.8 1025.0 1.2
23/03:00am 6.0 4.8 4.5 90 0.6 CALM 0 4 0 2 1025.1 1025.3 1.2
23/02:30am 6.4 5.2 4.4 87 0.9 CALM 0 2 0 1 1025.4 1025.6 1.2
23/02:00am 6.3 5.1 4.5 88 0.8 CALM 0 0 0 0 1025.6 1025.8 1.2
23/01:30am 6.6 5.4 4.6 87 0.9 CALM 0 0 0 0 1025.9 1026.1 1.2
23/01:00am 6.8 4.9 5.1 89 0.7 WSW 4 6 2 3 1026.0 1026.2 1.2
23/12:30am 7.2 5.3 4.7 84 1.1 W 4 7 2 4 1025.9 1026.1 1.2
23/12:00am 6.8 4.6 5.1 89 0.7 NW 6 7 3 4 1025.9 1026.1 1.2
 
Date/Time
EST
Temp
°C
App
Temp
°C
Dew
Point
°C
Rel
Hum
%
Delta-T
°C
Wind Press
QNH
hPa
Press
MSL
hPa
Rain since
9am
mm
Dir  Spd
km/h
Gust
km/h
Spd
kts
Gust
kts
22/11:30pm 6.9 4.7 5.1 88 0.8 NW 6 9 3 5 1025.8 1026.0 1.2
22/11:00pm 6.6 4.4 5.2 91 0.6 NW 6 7 3 4 1026.1 1026.3 1.2
22/10:30pm 6.4 4.2 5.2 92 0.5 NW 6 7 3 4 1026.1 1026.3 1.2
22/10:00pm 6.1 4.2 4.7 91 0.6 NW 4 6 2 3 1026.2 1026.4 1.2
22/09:30pm 6.0 3.4 4.3 89 0.7 NNW 7 9 4 5 1026.1 1026.3 1.2
22/09:00pm 5.6 3.1 3.9 89 0.7 NNW 6 7 3 4 1026.2 1026.4 1.2
22/08:30pm 5.5 3.8 4.2 91 0.6 NW 2 6 1 3 1026.1 1026.3 1.2
22/08:00pm 5.3 3.1 3.6 89 0.7 NW 4 6 2 3 1025.9 1026.1 1.2
22/07:30pm 5.1 2.9 3.3 88 0.8 NW 4 9 2 5 1025.7 1025.9 1.2
22/07:00pm 5.8 4.0 3.6 86 0.9 NW 2 4 1 2 1025.6 1025.8 1.2
22/06:30pm 6.4 4.6 3.4 81 1.3 W 2 7 1 4 1025.3 1025.5 1.2
22/06:00pm 7.4 4.9 3.5 76 1.7 W 6 9 3 5 1025.1 1025.3 1.2
22/05:30pm 9.1 5.6 3.5 68 2.4 WSW 11 19 6 10 1024.6 1024.8 1.2
22/05:00pm 10.4 6.8 3.2 61 3.1 W 11 20 6 11 1024.3 1024.5 1.2
22/04:30pm 10.8 6.5 3.4 60 3.3 WSW 15 22 8 12 1024.0 1024.2 1.2
22/04:00pm 9.9 5.4 2.0 58 3.3 SW 15 24 8 13 1023.5 1023.7 1.2
22/03:30pm 10.7 6.5 3.7 62 3.1 SW 15 30 8 16 1023.3 1023.5 1.2
22/03:00pm 11.1 7.1 4.8 65 2.9 WSW 15 24 8 13 1023.2 1023.4 1.2
22/02:30pm 9.7 6.4 4.5 70 2.3 SW 11 22 6 12 1023.2 1023.4 1.2
22/02:00pm 11.3 7.2 4.1 61 3.2 WSW 15 26 8 14 1023.1 1023.3 1.2
22/01:30pm 11.2 8.6 6.3 72 2.3 SW 9 20 5 11 1022.8 1023.0 1.2
22/01:00pm 9.8 6.8 5.8 76 1.8 SW 11 24 6 13 1023.1 1023.3 1.2
22/12:30pm 9.8 6.0 5.8 76 1.8 WSW 15 28 8 15 1023.1 1023.3 1.0
22/12:00pm 10.6 6.7 5.4 70 2.4 W 15 28 8 15 1022.8 1023.0 0.4
22/11:30am 10.7 8.0 5.5 70 2.4 WSW 9 22 5 12 1022.6 1022.8 0.4
22/11:00am 10.1 6.0 6.1 76 1.9 W 17 28 9 15 1022.7 1022.9 0.4
22/10:30am 10.0 6.1 5.4 73 2.1 WSW 15 24 8 13 1022.3 1022.5 0.4
22/10:00am 9.8 6.0 5.6 75 1.9 WSW 15 24 8 13 1021.9 1022.1 0.4
22/09:30am 9.6 5.9 4.6 71 2.2 SW 13 22 7 12 1021.7 1021.9 0.0
22/09:00am 9.2 5.6 4.8 74 2.0 W 13 24 7 13 1021.2 1021.5 10.0
22/08:30am 8.4 4.8 5.2 80 1.4 WNW 13 19 7 10 1020.9 1021.2 10.0
22/08:00am 7.9 4.6 4.3 78 1.6 W 11 20 6 11 1020.4 1020.6 10.0
22/07:30am 7.5 3.5 3.0 73 1.9 W 13 20 7 11 1019.7 1019.9 10.0
22/07:00am 7.9 3.2 3.0 71 2.1 W 17 30 9 16 1019.3 1019.5 10.0
22/06:30am 8.4 3.4 3.7 72 2.0 W 19 32 10 17 1018.9 1019.1 10.0
22/06:00am 8.2 3.7 4.0 75 1.8 W 17 28 9 15 1018.4 1018.6 10.0
22/05:30am 8.6 4.2 4.6 76 1.8 WSW 17 32 9 17 1017.8 1018.0 10.0
22/05:00am 9.1 4.3 5.5 78 1.6 WSW 20 39 11 21 1017.3 1017.5 10.0
22/04:30am 8.8 3.6 7.1 89 0.8 W 24 37 13 20 1016.8 1017.0 10.0
22/04:11am 8.8 2.8 7.1 89 0.8 W 28 48 15 26 1016.5 1016.7 10.0
22/04:00am 8.6 4.2 7.2 91 0.7 W 20 33 11 18 1016.6 1016.8 10.0
22/03:30am 9.9 3.6 7.5 85 1.2 W 30 46 16 25 1015.8 1016.0 9.2
22/03:17am 9.8 3.4 7.1 83 1.3 W 30 56 16 30 1015.4 1015.6 9.0
22/03:00am 10.0 3.4 7.6 85 1.2 W 32 46 17 25 1015.5 1015.7 9.0
22/02:44am 10.1 3.4 7.5 84 1.3 W 32 59 17 32 1015.3 1015.5 9.0
22/02:30am 10.3 4.2 8.1 86 1.1 W 30 48 16 26 1015.4 1015.6 9.0
22/02:00am 10.2 3.9 9.0 92 0.6 W 32 52 17 28 1015.5 1015.7 9.0
22/01:30am 10.3 3.9 9.4 94 0.5 W 33 61 18 33 1015.1 1015.3 9.0
22/01:00am 9.9 3.2 9.8 99 0.1 W 35 61 19 33 1014.8 1015.0 9.0
22/12:31am 10.4 4.2 10.1 98 0.2 W 33 54 18 29 1014.5 1014.6 7.4
22/12:30am 10.4 3.8 10.1 98 0.2 W 35 54 19 29 1014.5 1014.6 7.4
22/12:00am 10.1 3.5 10.1 100 0.0 W 35 56 19 30 1014.2 1014.3 7.0
 
Date/Time
EST
Temp
°C
App
Temp
°C
Dew
Point
°C
Rel
Hum
%
Delta-T
°C
Wind Press
QNH
hPa
Press
MSL
hPa
Rain since
9am
mm
Dir  Spd
km/h
Gust
km/h
Spd
kts
Gust
kts
21/11:56pm 10.1 4.9 10.1 100 0.0 W 28 52 15 28 1014.3 1014.4 7.0
21/11:42pm 10.2 3.7 10.2 100 0.0 W 35 59 19 32 1014.4 1014.5 4.4
21/11:30pm 10.2 2.9 10.1 99 0.1 WNW 39 57 21 31 1013.3 1013.5 2.2
21/11:00pm 10.4 2.6 9.6 95 0.4 WNW 41 72 22 39 1012.6 1012.8 1.2
21/10:30pm 11.0 3.3 8.8 86 1.1 WNW 39 57 21 31 1013.0 1013.2 0.8
21/10:00pm 11.6 3.8 8.3 80 1.6 WNW 39 63 21 34 1013.4 1013.6 0.8
21/09:30pm 11.5 3.3 8.4 81 1.5 WNW 41 63 22 34 1013.6 1013.7 0.8
21/09:00pm 11.6 3.4 8.1 79 1.7 WNW 41 61 22 33 1013.9 1014.0 0.8
21/08:30pm 11.4 4.3 8.1 80 1.6 WNW 35 65 19 35 1014.3 1014.4 0.8
21/08:01pm 10.9 4.2 8.1 83 1.4 WNW 33 54 18 29 1014.7 1014.9 0.8
21/08:00pm 10.9 4.2 8.0 82 1.4 WNW 33 50 18 27 1014.8 1015.0 0.8
21/07:30pm 11.2 4.9 7.3 77 1.9 WNW 30 48 16 26 1015.0 1015.2 0.8
21/07:00pm 11.2 4.4 7.1 76 2.0 WNW 32 56 17 30 1015.2 1015.4 0.8
21/06:37pm 11.4 4.6 6.7 73 2.2 WNW 32 52 17 28 1015.4 1015.6 0.8
21/06:30pm 11.3 4.5 6.8 74 2.2 WNW 32 50 17 27 1015.5 1015.7 0.8
21/06:00pm 11.5 4.6 7.2 75 2.1 WNW 33 52 18 28 1015.6 1015.8 0.8
21/05:55pm 11.5 5.2 7.2 75 2.1 WNW 30 52 16 28 1015.6 1015.8 0.8
21/05:30pm 11.4 5.9 7.7 78 1.8 WNW 26 41 14 22 1015.7 1015.9 0.8
21/05:00pm 11.2 7.1 8.6 84 1.3 WNW 20 30 11 16 1015.8 1016.0 0.8
21/04:30pm 11.2 7.2 8.1 81 1.5 W 19 30 10 16 1016.4 1016.6 0.8
21/04:00pm 11.1 7.0 7.8 80 1.6 W 19 32 10 17 1016.3 1016.5 0.8
21/03:30pm 11.9 7.3 8.2 78 1.8 W 22 32 12 17 1016.3 1016.5 0.4
21/03:00pm 12.1 8.0 7.8 75 2.1 W 19 32 10 17 1016.9 1017.1 0.4
21/02:36pm 13.0 6.9 6.4 64 3.2 W 28 46 15 25 1016.3 1016.5 0.4
21/02:30pm 12.9 5.7 6.0 63 3.3 W 33 50 18 27 1016.1 1016.3 0.4
21/02:22pm 13.6 7.0 6.0 60 3.6 W 30 50 16 27 1016.2 1016.4 0.4
21/02:00pm 12.8 7.3 7.5 70 2.6 W 26 39 14 21 1016.4 1016.6 0.4
21/01:30pm 12.9 8.5 7.4 69 2.7 W 20 37 11 20 1017.4 1017.6 0.4
21/01:15pm 12.6 6.6 7.1 69 2.7 W 28 46 15 25 1017.3 1017.5 0.4
21/01:00pm 12.8 6.0 6.8 67 2.9 W 32 48 17 26 1017.1 1017.3 0.4
21/12:31pm 12.6 5.9 7.5 71 2.5 W 32 50 17 27 1017.5 1017.7 0.4
21/12:30pm 12.6 5.7 7.1 69 2.7 W 33 50 18 27 1017.4 1017.6 0.4
21/12:00pm 12.6 6.6 7.1 69 2.7 W 28 46 15 25 1017.8 1018.0 0.4
21/11:46am 12.7 5.6 8.0 73 2.3 W 35 63 19 34 1017.8 1018.0 0.4
21/11:30am 12.4 6.5 8.9 79 1.8 W 30 46 16 25 1017.8 1018.0 0.4
21/11:00am 11.3 5.1 9.4 88 1.0 W 32 54 17 29 1017.9 1018.1 0.2
21/10:53am 11.3 5.4 9.2 87 1.1 W 30 48 16 26 1017.5 1017.7 0.2
21/10:30am 12.2 5.3 8.7 79 1.8 W 35 50 19 27 1017.5 1017.7 0.0
21/10:09am 12.2 6.0 9.9 86 1.2 W 33 59 18 32 1017.4 1017.6 0.0
21/10:00am 12.2 6.1 10.3 88 1.0 W 33 48 18 26 1017.5 1017.7 0.0
21/09:30am 10.9 5.2 9.7 92 0.6 W 30 48 16 26 1017.4 1017.6 0.0
21/09:26am 10.6 4.8 9.4 92 0.6 W 30 48 16 26 1017.3 1017.5 0.0
21/09:00am 10.3 6.6 10.3 100 0.0 WSW 20 37 11 20 1017.5 1017.7 10.8
21/08:41am 10.6 4.9 9.8 95 0.4 W 30 52 16 28 1017.0 1017.2 9.2
21/08:30am 10.6 4.6 10.0 96 0.3 WNW 32 46 17 25 1017.0 1017.2 9.0

Other formats

Comma delimited format used in spreadsheet applications
http://www.bom.gov.au/fwo/IDV60801/IDV60801.99806.axf

JavaScript Object Notation format (JSON) in row-major order
http://www.bom.gov.au/fwo/IDV60801/IDV60801.99806.json

Data quality

Most of these data are generated automatically and are frequently updated. Quality checks on data are not normally performed. It is possible for incorrect values to appear. Refer to information at About Latest Weather Observations and please check the disclaimer before using these data.